createdAt,value
2024-02-19T00:00:11.698Z,9.00
2024-02-19T00:02:38.737Z,9.87
2024-02-19T00:05:05.919Z,9.70
2024-02-19T00:07:32.901Z,8.80
2024-02-19T00:10:00.000Z,9.93
2024-02-19T00:12:27.139Z,8.93
2024-02-19T00:14:54.059Z,8.73
2024-02-19T00:17:21.047Z,9.70
2024-02-19T00:19:48.164Z,9.10
2024-02-19T00:22:15.199Z,9.33
2024-02-19T00:24:42.171Z,9.60
2024-02-19T00:27:09.087Z,9.53
2024-02-19T00:29:36.023Z,9.27
2024-02-19T00:32:03.000Z,10.40
2024-02-19T00:34:29.917Z,10.63
2024-02-19T00:36:56.917Z,10.63
2024-02-19T00:39:23.843Z,10.80
2024-02-19T00:41:50.718Z,11.60
2024-02-19T00:44:17.655Z,12.20
2024-02-19T00:46:44.572Z,11.20
2024-02-19T00:49:11.656Z,11.27
2024-02-19T00:51:38.689Z,12.20
2024-02-19T00:54:05.640Z,11.07
2024-02-19T00:56:32.595Z,11.63
2024-02-19T00:58:59.547Z,11.83
2024-02-19T01:01:26.692Z,10.87
2024-02-19T01:03:53.842Z,10.63
2024-02-19T01:06:20.885Z,10.03
2024-02-19T01:08:47.807Z,11.10
2024-02-19T01:11:14.793Z,11.47
2024-02-19T01:13:41.840Z,10.60
2024-02-19T01:16:09.548Z,12.37
2024-02-19T01:18:37.454Z,11.17
2024-02-19T01:21:05.176Z,11.63
2024-02-19T01:23:32.572Z,12.40
2024-02-19T01:25:59.511Z,12.00
2024-02-19T01:28:26.499Z,10.40
2024-02-19T01:30:53.459Z,10.47
2024-02-19T01:33:20.408Z,11.83
2024-02-19T01:35:47.295Z,11.73
2024-02-19T01:38:14.558Z,12.50
2024-02-19T01:40:41.466Z,11.13
2024-02-19T01:43:08.894Z,11.93
2024-02-19T01:45:35.938Z,12.07
2024-02-19T01:48:03.338Z,11.80
2024-02-19T01:50:33.333Z,12.10
2024-02-19T01:53:07.776Z,12.20
2024-02-19T01:55:37.074Z,11.90
2024-02-19T01:58:04.546Z,10.37
2024-02-19T02:00:34.153Z,10.67
2024-02-19T02:03:02.731Z,11.17
2024-02-19T02:05:29.754Z,10.67
2024-02-19T02:07:56.984Z,9.43
2024-02-19T02:10:23.965Z,5.30
2024-02-19T02:12:51.752Z,6.20
2024-02-19T02:15:18.877Z,3.83
2024-02-19T02:17:45.809Z,4.60
2024-02-19T02:20:13.165Z,3.67
2024-02-19T02:22:40.140Z,2.93
2024-02-19T02:25:07.694Z,5.27
2024-02-19T02:27:34.656Z,4.00
2024-02-19T02:30:01.696Z,3.60
2024-02-19T02:32:28.670Z,3.07
2024-02-19T02:34:55.720Z,3.20
2024-02-19T02:37:22.697Z,3.60
2024-02-19T02:39:49.599Z,3.80
2024-02-19T02:42:16.594Z,4.50
2024-02-19T02:44:43.530Z,3.37
2024-02-19T02:47:10.402Z,2.53
2024-02-19T02:49:37.355Z,2.10
2024-02-19T02:52:04.527Z,2.03
2024-02-19T02:54:31.441Z,2.30
2024-02-19T02:56:58.361Z,1.77
2024-02-19T02:59:25.251Z,1.30
2024-02-19T03:01:52.464Z,1.37
2024-02-19T03:04:19.543Z,2.53
2024-02-19T03:06:46.679Z,1.80
2024-02-19T03:09:13.677Z,2.40
2024-02-19T03:11:40.596Z,2.00
2024-02-19T03:14:07.479Z,1.03
2024-02-19T03:16:34.440Z,1.20
2024-02-19T03:19:01.459Z,1.40
2024-02-19T03:21:28.405Z,1.20
2024-02-19T03:23:55.255Z,1.40
2024-02-19T03:26:37.462Z,1.33
2024-02-19T03:29:13.910Z,1.30
2024-02-19T03:31:42.314Z,1.50
2024-02-19T03:34:09.621Z,1.60
2024-02-19T03:36:36.996Z,1.60
2024-02-19T03:39:04.123Z,1.50
2024-02-19T03:41:31.198Z,1.70
2024-02-19T03:43:58.069Z,1.40
2024-02-19T03:46:24.960Z,1.77
2024-02-19T03:48:51.922Z,1.30
2024-02-19T03:51:18.925Z,1.50
2024-02-19T03:53:45.852Z,1.60
2024-02-19T03:56:12.737Z,1.13
2024-02-19T03:58:39.647Z,1.10
2024-02-19T04:01:08.511Z,1.30
2024-02-19T04:03:35.965Z,1.00
2024-02-19T04:06:03.474Z,1.00
2024-02-19T04:08:33.657Z,0.90
2024-02-19T04:11:00.549Z,1.00
2024-02-19T04:13:27.479Z,0.90
2024-02-19T04:15:56.166Z,0.90
2024-02-19T04:18:23.547Z,1.00
2024-02-19T04:20:50.669Z,0.80
2024-02-19T04:23:17.804Z,0.97
2024-02-19T04:25:44.783Z,0.90
2024-02-19T04:28:11.834Z,1.00
2024-02-19T04:30:39.029Z,1.07
2024-02-19T04:33:06.347Z,0.70
2024-02-19T04:35:33.550Z,1.20
2024-02-19T04:38:00.457Z,0.87
2024-02-19T04:40:27.505Z,1.07
2024-02-19T04:42:54.503Z,1.03
2024-02-19T04:45:21.629Z,0.90
2024-02-19T04:47:48.779Z,1.00
2024-02-19T04:50:17.250Z,1.30
2024-02-19T04:52:44.423Z,1.00
2024-02-19T04:55:11.763Z,0.90
2024-02-19T04:57:38.804Z,1.10
2024-02-19T05:00:06.829Z,1.20
2024-02-19T05:02:33.786Z,1.20
2024-02-19T05:05:00.865Z,1.00
2024-02-19T05:07:29.057Z,1.07
2024-02-19T05:09:56.335Z,1.10
2024-02-19T05:12:23.238Z,1.20
2024-02-19T05:14:50.169Z,1.10
2024-02-19T05:17:17.084Z,1.20
2024-02-19T05:19:44.124Z,1.10
2024-02-19T05:22:11.197Z,1.27
2024-02-19T05:24:39.938Z,1.30
2024-02-19T05:27:08.306Z,1.00
2024-02-19T05:29:40.670Z,0.93
2024-02-19T05:32:14.412Z,1.00
2024-02-19T05:34:46.860Z,1.00
2024-02-19T05:37:19.265Z,1.00
2024-02-19T05:39:54.501Z,0.93
2024-02-19T05:42:22.072Z,0.90
2024-02-19T05:44:50.711Z,0.83
2024-02-19T05:47:20.867Z,0.97
2024-02-19T05:49:49.766Z,0.80
2024-02-19T05:52:17.953Z,0.70
2024-02-19T05:54:47.827Z,0.80
2024-02-19T05:57:22.400Z,0.93
2024-02-19T06:00:05.254Z,0.83
2024-02-19T06:02:39.583Z,0.60
2024-02-19T06:05:11.486Z,0.80
2024-02-19T06:07:43.437Z,0.80
2024-02-19T06:10:11.369Z,0.83
2024-02-19T06:12:38.764Z,0.90
2024-02-19T06:15:09.825Z,0.93
2024-02-19T06:17:37.360Z,0.90
2024-02-19T06:20:13.358Z,0.70
2024-02-19T06:22:43.581Z,0.80
2024-02-19T06:25:16.634Z,1.00
2024-02-19T06:27:51.522Z,0.90
2024-02-19T06:30:32.318Z,0.90
2024-02-19T06:32:59.395Z,1.13
2024-02-19T06:35:26.676Z,1.00
2024-02-19T06:37:54.108Z,1.00
2024-02-19T06:40:29.346Z,0.90
2024-02-19T06:42:57.075Z,0.97
2024-02-19T06:45:24.476Z,1.10
2024-02-19T06:48:14.726Z,0.80
2024-02-19T06:50:41.971Z,1.10
2024-02-19T06:53:09.068Z,1.13
2024-02-19T06:55:37.326Z,0.80
2024-02-19T06:58:05.159Z,0.77
2024-02-19T07:00:33.264Z,0.77
2024-02-19T07:03:01.161Z,0.90
2024-02-19T07:05:28.516Z,0.80
2024-02-19T07:08:00.803Z,1.07
2024-02-19T07:10:28.014Z,1.00
2024-02-19T07:12:55.694Z,1.40
2024-02-19T07:15:27.456Z,1.07
2024-02-19T07:17:54.827Z,0.73
2024-02-19T07:20:21.914Z,0.97
2024-02-19T07:22:50.224Z,0.80
2024-02-19T07:25:21.667Z,0.90
2024-02-19T07:27:50.333Z,1.03
2024-02-19T07:30:19.071Z,1.00
2024-02-19T07:32:50.244Z,0.90
2024-02-19T07:35:17.436Z,0.83
2024-02-19T07:37:44.748Z,0.90
2024-02-19T07:40:12.382Z,0.90
2024-02-19T07:42:39.908Z,1.03
2024-02-19T07:45:08.609Z,1.10
2024-02-19T07:47:37.025Z,1.63
2024-02-19T07:50:04.813Z,1.67
2024-02-19T07:52:33.617Z,1.30
2024-02-19T07:55:03.983Z,1.97
2024-02-19T07:57:35.258Z,1.13
2024-02-19T08:00:10.569Z,1.27
2024-02-19T08:02:58.184Z,1.30
2024-02-19T08:05:25.558Z,1.10
2024-02-19T08:07:57.097Z,1.07
2024-02-19T08:10:28.423Z,1.10
2024-02-19T08:12:57.995Z,1.17
2024-02-19T08:15:30.832Z,1.10
2024-02-19T08:18:01.133Z,1.00
2024-02-19T08:20:29.749Z,1.00
2024-02-19T08:22:57.281Z,1.07
2024-02-19T08:25:26.468Z,0.90
2024-02-19T08:28:18.292Z,1.13
2024-02-19T08:30:49.984Z,0.90
2024-02-19T08:33:27.520Z,0.90
2024-02-19T08:35:59.819Z,1.03
2024-02-19T08:38:35.153Z,0.90
2024-02-19T08:41:03.914Z,1.50
2024-02-19T08:43:34.714Z,2.27
2024-02-19T08:46:07.602Z,1.07
2024-02-19T08:48:38.612Z,0.90
2024-02-19T08:51:06.152Z,0.87
2024-02-19T08:53:33.533Z,0.90
2024-02-19T08:56:01.419Z,1.13
2024-02-19T08:58:29.017Z,1.30
2024-02-19T09:00:56.793Z,0.97
2024-02-19T09:03:24.943Z,0.90
2024-02-19T09:05:53.285Z,0.90
2024-02-19T09:08:20.938Z,0.90
2024-02-19T09:10:48.480Z,1.00
2024-02-19T09:13:18.935Z,0.90
2024-02-19T09:15:48.321Z,1.10
2024-02-19T09:18:26.639Z,0.90
2024-02-19T09:20:58.326Z,1.50
2024-02-19T09:23:26.836Z,1.40
2024-02-19T09:25:56.191Z,1.13
2024-02-19T09:28:27.842Z,1.13
2024-02-19T09:31:00.769Z,1.07
2024-02-19T09:33:31.595Z,1.13
2024-02-19T09:35:59.266Z,1.37
2024-02-19T09:38:27.043Z,1.27
2024-02-19T09:40:54.760Z,1.40
2024-02-19T09:43:26.503Z,1.20
2024-02-19T09:45:58.907Z,1.03
2024-02-19T09:48:30.120Z,1.00
2024-02-19T09:50:58.237Z,1.00
2024-02-19T09:53:32.169Z,1.27
2024-02-19T09:55:59.896Z,1.37
2024-02-19T09:58:28.907Z,1.13
2024-02-19T10:00:56.530Z,1.43
2024-02-19T10:03:23.791Z,1.43
2024-02-19T10:05:51.412Z,1.30
2024-02-19T10:08:23.692Z,1.40
2024-02-19T10:10:58.549Z,1.10
2024-02-19T10:13:27.873Z,1.30
2024-02-19T10:15:59.363Z,0.97
2024-02-19T10:18:26.908Z,1.30
2024-02-19T10:20:55.611Z,1.10
2024-02-19T10:23:24.398Z,1.30
2024-02-19T10:25:52.548Z,1.60
2024-02-19T10:28:22.555Z,1.43
2024-02-19T10:30:55.939Z,1.40
2024-02-19T10:33:40.147Z,1.30
2024-02-19T10:36:08.918Z,1.60
2024-02-19T10:38:42.222Z,1.60
2024-02-19T10:41:12.737Z,1.60
2024-02-19T10:46:23.216Z,1.77
2024-02-19T10:48:57.640Z,1.40
2024-02-19T10:51:47.940Z,1.57
2024-02-19T10:54:20.903Z,1.50
2024-02-19T10:56:49.358Z,1.47
2024-02-19T10:59:16.963Z,1.70
2024-02-19T11:01:53.194Z,1.47
2024-02-19T11:04:40.696Z,1.40
2024-02-19T11:07:09.073Z,1.80
2024-02-19T11:09:43.902Z,1.40
2024-02-19T11:12:16.866Z,1.50
2024-02-19T11:14:57.249Z,1.47
2024-02-19T11:17:26.086Z,1.80
2024-02-19T11:23:22.308Z,1.73
2024-02-19T11:26:23.841Z,1.50
2024-02-19T11:29:05.728Z,1.40
2024-02-19T11:31:37.498Z,2.20
2024-02-19T11:34:30.223Z,1.33
2024-02-19T11:37:09.798Z,2.13
2024-02-19T11:39:39.090Z,1.73
2024-02-19T11:42:18.197Z,1.60
2024-02-19T11:44:54.522Z,1.40
2024-02-19T11:47:25.975Z,1.90
2024-02-19T11:49:57.952Z,1.47
2024-02-19T11:52:28.160Z,1.50
2024-02-19T11:54:55.458Z,1.80
2024-02-19T11:57:39.994Z,1.90
2024-02-19T12:00:10.662Z,1.60
2024-02-19T12:02:53.361Z,1.47
2024-02-19T12:05:21.270Z,1.00
2024-02-19T12:07:49.363Z,0.87
2024-02-19T12:10:18.997Z,1.77
2024-02-19T12:12:47.248Z,1.30
2024-02-19T12:15:17.429Z,1.40
2024-02-19T12:17:46.961Z,1.90
2024-02-19T12:20:16.225Z,2.20
2024-02-19T12:22:44.013Z,3.60
2024-02-19T12:25:16.905Z,4.67
2024-02-19T12:27:49.911Z,1.40
2024-02-19T12:30:19.431Z,3.80
2024-02-19T12:32:49.240Z,1.77
2024-02-19T12:35:16.860Z,2.30
2024-02-19T12:37:47.005Z,1.20
2024-02-19T12:40:24.655Z,1.00
2024-02-19T12:42:58.919Z,2.10
2024-02-19T12:45:33.253Z,3.07
2024-02-19T12:48:02.149Z,1.90
2024-02-19T12:50:33.275Z,1.23
2024-02-19T12:53:01.314Z,2.00
2024-02-19T12:55:28.646Z,1.40
2024-02-19T12:58:01.513Z,0.80
2024-02-19T13:00:28.820Z,1.10
2024-02-19T13:02:59.678Z,1.20
2024-02-19T13:05:33.995Z,1.20
2024-02-19T13:08:03.837Z,1.00
2024-02-19T13:10:31.172Z,1.13
2024-02-19T13:13:00.472Z,1.00
2024-02-19T13:15:30.524Z,1.10
2024-02-19T13:17:59.136Z,1.00
2024-02-19T13:20:27.898Z,1.20
2024-02-19T13:23:06.573Z,1.30
2024-02-19T13:25:34.673Z,2.03
2024-02-19T13:28:03.253Z,1.50
2024-02-19T13:30:35.424Z,1.13
2024-02-19T13:33:03.088Z,1.10
2024-02-19T13:35:31.630Z,1.30
2024-02-19T13:38:03.412Z,1.03
2024-02-19T13:40:31.622Z,1.20
2024-02-19T13:43:23.982Z,1.00
2024-02-19T13:46:05.079Z,1.30
2024-02-19T13:48:35.769Z,1.10
2024-02-19T13:51:05.197Z,1.00
2024-02-19T13:53:42.290Z,1.50
2024-02-19T13:56:11.815Z,1.20
2024-02-19T13:58:43.321Z,1.20
2024-02-19T14:01:21.228Z,1.00
2024-02-19T14:03:51.582Z,1.00
2024-02-19T14:06:23.499Z,1.30
2024-02-19T14:11:32.566Z,1.40
2024-02-19T14:11:42.394Z,1.10
2024-02-19T14:14:10.466Z,1.00
2024-02-19T14:16:40.403Z,1.20
2024-02-19T14:19:10.956Z,1.37
2024-02-19T14:21:42.994Z,1.17
2024-02-19T14:24:10.416Z,1.10
2024-02-19T14:26:39.876Z,1.20
2024-02-19T14:29:16.299Z,1.00
2024-02-19T14:31:51.261Z,1.07
2024-02-19T14:34:22.760Z,1.13
2024-02-19T14:36:51.107Z,1.77
2024-02-19T14:39:24.691Z,1.10
2024-02-19T14:42:03.728Z,1.60
2024-02-19T14:44:33.898Z,1.20
2024-02-19T14:47:07.249Z,1.30
2024-02-19T14:49:38.653Z,1.43
2024-02-19T14:52:09.267Z,1.50
2024-02-19T14:54:37.277Z,1.20
2024-02-19T14:57:29.319Z,1.27
2024-02-19T15:00:04.758Z,1.43
2024-02-19T15:02:35.209Z,1.57
2024-02-19T15:05:04.829Z,1.30
2024-02-19T15:07:43.452Z,1.20
2024-02-19T15:10:16.979Z,1.50
2024-02-19T15:12:45.810Z,2.00
2024-02-19T15:15:25.590Z,1.87
2024-02-19T15:17:55.299Z,1.70
2024-02-19T15:20:23.493Z,1.40
2024-02-19T15:23:05.671Z,1.57
2024-02-19T15:25:45.143Z,1.30
2024-02-19T15:28:23.333Z,1.50
2024-02-19T15:30:54.642Z,1.60
2024-02-19T15:33:41.084Z,2.23
2024-02-19T15:36:12.333Z,1.50
2024-02-19T15:38:46.751Z,1.40
2024-02-19T15:41:16.521Z,2.17
2024-02-19T15:43:56.427Z,1.60
2024-02-19T15:46:25.314Z,2.00
2024-02-19T15:48:53.421Z,1.70
2024-02-19T15:51:24.608Z,2.10
2024-02-19T15:54:05.964Z,1.63
2024-02-19T15:56:47.814Z,1.77
2024-02-19T15:59:22.199Z,2.20
2024-02-19T16:02:02.257Z,1.20
2024-02-19T16:04:41.269Z,1.80
2024-02-19T16:07:24.904Z,3.80
2024-02-19T16:10:11.705Z,2.60
2024-02-19T16:13:40.434Z,2.43
2024-02-19T16:15:49.466Z,2.00
2024-02-19T16:18:47.695Z,2.00
2024-02-19T16:21:27.268Z,1.97
2024-02-19T16:23:59.925Z,1.90
2024-02-19T16:26:33.633Z,1.33
2024-02-19T16:29:11.660Z,1.50
2024-02-19T16:31:51.225Z,1.80
2024-02-19T16:34:19.163Z,1.90
2024-02-19T16:36:51.330Z,1.67
2024-02-19T16:39:22.194Z,2.20
2024-02-19T16:41:53.850Z,1.70
2024-02-19T16:44:20.991Z,2.00
2024-02-19T16:46:53.129Z,1.83
2024-02-19T16:49:35.778Z,2.00
2024-02-19T16:52:22.546Z,1.37
2024-02-19T16:54:57.014Z,1.40
2024-02-19T16:57:30.498Z,1.20
2024-02-19T17:00:00.597Z,1.33
2024-02-19T17:02:34.173Z,1.17
2024-02-19T17:07:56.592Z,1.80
2024-02-19T17:10:26.242Z,1.40
2024-02-19T17:13:04.148Z,1.50
2024-02-19T17:16:34.301Z,1.90
2024-02-19T17:18:31.365Z,1.80
2024-02-19T17:21:23.001Z,2.33
2024-02-19T17:23:57.041Z,1.70
2024-02-19T17:26:29.239Z,1.80
2024-02-19T17:29:09.304Z,1.90
2024-02-19T17:31:39.121Z,2.50
2024-02-19T17:34:30.168Z,1.80
2024-02-19T17:37:01.524Z,2.10
2024-02-19T17:39:31.215Z,2.30
2024-02-19T17:42:14.085Z,2.30
2024-02-19T17:44:42.646Z,2.63
2024-02-19T17:47:11.074Z,2.40
2024-02-19T17:49:43.590Z,2.53
2024-02-19T17:52:19.681Z,2.50
2024-02-19T17:54:48.591Z,2.43
2024-02-19T17:57:19.827Z,2.40
2024-02-19T17:59:47.295Z,3.20
2024-02-19T18:02:19.826Z,2.50
2024-02-19T18:04:54.698Z,2.60
2024-02-19T18:07:33.632Z,2.80
2024-02-19T18:10:05.383Z,3.20
2024-02-19T18:12:52.437Z,2.93
2024-02-19T18:15:24.589Z,2.90
2024-02-19T18:17:53.979Z,3.00
2024-02-19T18:20:28.643Z,2.80
2024-02-19T18:22:56.249Z,2.53
2024-02-19T18:25:29.731Z,3.57
2024-02-19T18:27:57.300Z,2.97
2024-02-19T18:30:27.709Z,3.73
2024-02-19T18:33:07.043Z,2.13
2024-02-19T18:35:38.583Z,3.50
2024-02-19T18:38:06.885Z,2.00
2024-02-19T18:40:40.794Z,2.30
2024-02-19T18:43:12.081Z,2.07
2024-02-19T18:45:40.895Z,2.30
2024-02-19T18:48:09.240Z,2.10
2024-02-19T18:50:39.465Z,2.53
2024-02-19T18:53:21.580Z,2.97
2024-02-19T18:56:03.132Z,2.70
2024-02-19T18:58:37.091Z,3.27
2024-02-19T19:01:08.242Z,3.30
2024-02-19T19:03:46.220Z,3.23
2024-02-19T19:06:15.524Z,3.20
2024-02-19T19:08:43.233Z,3.77
2024-02-19T19:11:13.563Z,3.10
2024-02-19T19:13:45.679Z,2.40
2024-02-19T19:16:15.012Z,2.87
2024-02-19T19:18:54.492Z,2.30
2024-02-19T19:21:23.887Z,2.17
2024-02-19T19:23:51.247Z,2.30
2024-02-19T19:26:27.120Z,2.27
2024-02-19T19:28:58.949Z,2.60
2024-02-19T19:31:26.257Z,2.57
2024-02-19T19:34:10.240Z,2.80
2024-02-19T19:36:45.060Z,3.37
2024-02-19T19:39:18.239Z,4.27
2024-02-19T19:41:51.322Z,4.50
2024-02-19T19:44:25.176Z,3.33
2024-02-19T19:46:55.429Z,3.73
2024-02-19T19:49:24.734Z,2.90
2024-02-19T19:51:52.071Z,2.63
2024-02-19T19:54:25.414Z,2.93
2024-02-19T19:56:54.070Z,2.30
2024-02-19T19:59:21.883Z,2.47
2024-02-19T20:01:49.715Z,2.10
2024-02-19T20:04:23.239Z,2.80
2024-02-19T20:06:51.689Z,2.50
2024-02-19T20:09:19.317Z,2.50
2024-02-19T20:11:47.538Z,2.90
2024-02-19T20:14:20.318Z,2.30
2024-02-19T20:17:10.377Z,2.47
2024-02-19T20:19:40.108Z,2.33
2024-02-19T20:22:11.839Z,1.97
2024-02-19T20:24:50.771Z,1.93
2024-02-19T20:27:18.740Z,2.10
2024-02-19T20:29:48.272Z,1.73
2024-02-19T20:32:16.201Z,2.23
2024-02-19T20:34:48.886Z,2.60
2024-02-19T20:37:19.540Z,2.90
2024-02-19T20:39:48.718Z,2.30
2024-02-19T20:42:21.301Z,3.23
2024-02-19T20:44:51.250Z,3.50
2024-02-19T20:47:19.012Z,4.93
2024-02-19T20:49:50.871Z,6.07
2024-02-19T20:52:20.577Z,4.93
2024-02-19T20:54:48.560Z,4.90
2024-02-19T20:57:21.924Z,2.47
2024-02-19T20:59:54.140Z,2.37
2024-02-19T21:02:33.759Z,2.30
2024-02-19T21:05:22.895Z,2.00
2024-02-19T21:07:50.447Z,1.90
2024-02-19T21:10:22.032Z,2.47
2024-02-19T21:12:54.642Z,1.93
2024-02-19T21:15:22.284Z,2.60
2024-02-19T21:17:52.440Z,3.50
2024-02-19T21:20:24.856Z,2.37
2024-02-19T21:22:53.996Z,2.67
2024-02-19T21:25:22.141Z,2.17
2024-02-19T21:27:52.693Z,2.27
2024-02-19T21:30:21.785Z,2.27
2024-02-19T21:32:51.842Z,2.30
2024-02-19T21:35:22.738Z,2.30
2024-02-19T21:37:52.522Z,2.90
2024-02-19T21:40:24.312Z,2.23
2024-02-19T21:42:53.767Z,2.80
2024-02-19T21:45:22.556Z,2.20
2024-02-19T21:47:53.341Z,3.20
2024-02-19T21:50:21.401Z,2.53
2024-02-19T21:52:48.557Z,2.50
2024-02-19T21:55:26.603Z,2.33
2024-02-19T21:57:54.924Z,2.37
2024-02-19T22:00:24.719Z,2.67
2024-02-19T22:02:58.245Z,2.93
2024-02-19T22:05:27.151Z,2.60
2024-02-19T22:07:55.012Z,2.60
2024-02-19T22:10:25.727Z,2.90
2024-02-19T22:12:55.120Z,2.30
2024-02-19T22:15:23.013Z,3.07
2024-02-19T22:17:52.203Z,3.20
2024-02-19T22:20:19.763Z,2.27
2024-02-19T22:22:48.423Z,2.43
2024-02-19T22:25:17.049Z,2.33
2024-02-19T22:27:46.649Z,2.47
2024-02-19T22:30:18.343Z,3.23
2024-02-19T22:32:47.610Z,3.47
2024-02-19T22:35:16.079Z,2.97
2024-02-19T22:37:47.474Z,2.60
2024-02-19T22:40:22.227Z,2.40
2024-02-19T22:42:53.665Z,3.13
2024-02-19T22:45:21.033Z,3.20
2024-02-19T22:47:48.548Z,2.83
2024-02-19T22:50:22.199Z,2.43
2024-02-19T22:53:12.095Z,2.47
2024-02-19T22:55:42.202Z,3.63
2024-02-19T22:58:15.541Z,3.40
2024-02-19T23:00:50.425Z,3.17
2024-02-19T23:03:21.014Z,2.50
2024-02-19T23:05:49.743Z,2.70
2024-02-19T23:08:18.756Z,2.70
2024-02-19T23:10:48.654Z,2.73
2024-02-19T23:13:16.288Z,2.67
2024-02-19T23:15:48.396Z,2.90
2024-02-19T23:18:17.128Z,2.57
2024-02-19T23:20:45.899Z,2.90
2024-02-19T23:23:14.731Z,2.23
2024-02-19T23:25:45.047Z,2.57
2024-02-19T23:28:15.765Z,3.13
2024-02-19T23:30:43.209Z,2.40
2024-02-19T23:33:12.153Z,2.30
2024-02-19T23:35:42.598Z,2.90
2024-02-19T23:38:28.759Z,2.60
2024-02-19T23:40:57.329Z,2.50
2024-02-19T23:43:32.548Z,2.23
2024-02-19T23:46:04.230Z,2.57
2024-02-19T23:48:34.702Z,2.47
2024-02-19T23:51:03.940Z,3.00
2024-02-19T23:53:31.560Z,2.60
2024-02-19T23:56:02.884Z,2.00
2024-02-19T23:58:31.794Z,2.97
